Chennai, India
Current Conditions -  °F | °C
As of 8:10 AM on Tuesday 23 Dec 2014 (Local Time) from VOMM Reporting Station
Haze Haze  
Wind Chill: 25°   Ceiling: 10000
Heat Index: 26°   Visibility: 1.2mi
Dew Point: 22°   Wind: 3mph
Humidity: 83%   Direction: 320°NW
Pressure: 29.91"   Gusts: NA
Location:  13.06°N, 80.25°E
Report Text: VOMM 230310Z 32003KT 2000 BR SCT020 BKN100 25/22 Q1013 NOSIG
Loading
Personal Weather Stations






























Interactive Weather Map New forecast layout! Learn more

10-Day Weather Forecast

Advertisements
Track Severe Weather on mobile